sensor_id;sensor_type;location;lat;lon;timestamp;pressure;altitude;pressure_sealevel;temperature;humidity
48204;BME280;33994;50.998;5.864;2023-10-09T00:00:32;101597.41;;;16.51;88.97
48204;BME280;33994;50.998;5.864;2023-10-09T00:03:35;101593.97;;;16.47;89.39
48204;BME280;33994;50.998;5.864;2023-10-09T00:06:40;101593.13;;;16.47;89.56
48204;BME280;33994;50.998;5.864;2023-10-09T00:09:43;101600.25;;;16.43;89.74
48204;BME280;33994;50.998;5.864;2023-10-09T00:12:47;101591.53;;;16.41;89.79
48204;BME280;33994;50.998;5.864;2023-10-09T00:15:50;101583.72;;;16.37;89.91
48204;BME280;33994;50.998;5.864;2023-10-09T00:18:53;101589.09;;;16.32;90.08
48204;BME280;33994;50.998;5.864;2023-10-09T00:21:59;101579.59;;;16.26;90.43
48204;BME280;33994;50.998;5.864;2023-10-09T00:25:02;101585.91;;;16.21;90.45
48204;BME280;33994;50.998;5.864;2023-10-09T00:28:05;101581.59;;;16.17;90.75
48204;BME280;33994;50.998;5.864;2023-10-09T00:31:08;101580.88;;;16.12;91.08
48204;BME280;33994;50.998;5.864;2023-10-09T00:34:11;101576.56;;;16.08;91.48
48204;BME280;33994;50.998;5.864;2023-10-09T00:37:16;101581.91;;;16.06;91.63
48204;BME280;33994;50.998;5.864;2023-10-09T00:40:19;101578.50;;;16.01;92.03
48204;BME280;33994;50.998;5.864;2023-10-09T00:43:23;101580.31;;;15.99;92.26
48204;BME280;33994;50.998;5.864;2023-10-09T00:46:27;101576.84;;;15.97;92.54
48204;BME280;33994;50.998;5.864;2023-10-09T00:49:30;101564.63;;;15.93;92.64
48204;BME280;33994;50.998;5.864;2023-10-09T00:52:36;101573.47;;;15.90;92.78
48204;BME280;33994;50.998;5.864;2023-10-09T00:55:40;101563.91;;;15.88;93.16
48204;BME280;33994;50.998;5.864;2023-10-09T00:58:44;101563.06;;;15.86;93.33
48204;BME280;33994;50.998;5.864;2023-10-09T01:01:47;101552.50;;;15.86;93.67
48204;BME280;33994;50.998;5.864;2023-10-09T01:04:51;101550.78;;;15.85;93.81
48204;BME280;33994;50.998;5.864;2023-10-09T01:07:55;101556.06;;;15.85;93.89
48204;BME280;33994;50.998;5.864;2023-10-09T01:10:58;101554.34;;;15.84;94.04
48204;BME280;33994;50.998;5.864;2023-10-09T01:14:01;101549.88;;;15.86;94.33
48204;BME280;33994;50.998;5.864;2023-10-09T01:17:05;101541.94;;;15.86;94.24
48204;BME280;33994;50.998;5.864;2023-10-09T01:20:09;101539.28;;;15.87;94.29
48204;BME280;33994;50.998;5.864;2023-10-09T01:23:13;101536.69;;;15.86;94.30
48204;BME280;33994;50.998;5.864;2023-10-09T01:26:16;101537.53;;;15.86;94.61
48204;BME280;33994;50.998;5.864;2023-10-09T01:29:21;101533.16;;;15.87;94.53
48204;BME280;33994;50.998;5.864;2023-10-09T01:32:24;101529.56;;;15.89;94.61
48204;BME280;33994;50.998;5.864;2023-10-09T01:35:27;101537.41;;;15.92;94.64
48204;BME280;33994;50.998;5.864;2023-10-09T01:38:32;101531.13;;;15.96;94.71
48204;BME280;33994;50.998;5.864;2023-10-09T01:41:36;101530.16;;;16.00;94.65
48204;BME280;33994;50.998;5.864;2023-10-09T01:44:39;101531.66;;;16.09;94.24
48204;BME280;33994;50.998;5.864;2023-10-09T01:47:43;101520.03;;;16.16;93.57
48204;BME280;33994;50.998;5.864;2023-10-09T01:50:46;101526.09;;;16.21;93.40
48204;BME280;33994;50.998;5.864;2023-10-09T01:53:50;101517.97;;;16.27;92.93
48204;BME280;33994;50.998;5.864;2023-10-09T01:56:53;101524.03;;;16.31;92.36
48204;BME280;33994;50.998;5.864;2023-10-09T01:59:56;101513.41;;;16.34;91.99
48204;BME280;33994;50.998;5.864;2023-10-09T02:03:00;101521.25;;;16.37;91.69
48204;BME280;33994;50.998;5.864;2023-10-09T02:06:03;101521.97;;;16.42;91.46
48204;BME280;33994;50.998;5.864;2023-10-09T02:09:08;101524.59;;;16.44;90.91
48204;BME280;33994;50.998;5.864;2023-10-09T02:12:11;101545.59;;;16.47;90.70
48204;BME280;33994;50.998;5.864;2023-10-09T02:15:14;101550.00;;;16.46;90.35
48204;BME280;33994;50.998;5.864;2023-10-09T02:18:18;101549.16;;;16.46;90.08
48204;BME280;33994;50.998;5.864;2023-10-09T02:21:21;101548.34;;;16.44;89.82
48204;BME280;33994;50.998;5.864;2023-10-09T02:24:27;101545.69;;;16.44;89.75
48204;BME280;33994;50.998;5.864;2023-10-09T02:27:30;101547.50;;;16.42;89.97
48204;BME280;33994;50.998;5.864;2023-10-09T02:30:33;101544.91;;;16.40;89.99
48204;BME280;33994;50.998;5.864;2023-10-09T02:33:36;101543.22;;;16.38;89.83
48204;BME280;33994;50.998;5.864;2023-10-09T02:36:40;101538.00;;;16.36;90.02
48204;BME280;33994;50.998;5.864;2023-10-09T02:39:45;101534.53;;;16.34;89.98
48204;BME280;33994;50.998;5.864;2023-10-09T02:42:48;101535.47;;;16.32;90.01
48204;BME280;33994;50.998;5.864;2023-10-09T02:45:51;101539.00;;;16.30;90.31
48204;BME280;33994;50.998;5.864;2023-10-09T02:48:55;101539.09;;;16.27;90.46
48204;BME280;33994;50.998;5.864;2023-10-09T02:51:59;101536.53;;;16.24;90.47
48204;BME280;33994;50.998;5.864;2023-10-09T02:55:04;101536.59;;;16.23;90.35
48204;BME280;33994;50.998;5.864;2023-10-09T02:58:08;101544.50;;;16.23;90.19
48204;BME280;33994;50.998;5.864;2023-10-09T03:01:11;101526.09;;;16.21;90.26
48204;BME280;33994;50.998;5.864;2023-10-09T03:04:14;101538.38;;;16.22;90.30
48204;BME280;33994;50.998;5.864;2023-10-09T03:07:17;101519.97;;;16.19;89.93
48204;BME280;33994;50.998;5.864;2023-10-09T03:10:23;101530.53;;;16.19;90.06
48204;BME280;33994;50.998;5.864;2023-10-09T03:13:26;101516.53;;;16.17;89.86
48204;BME280;33994;50.998;5.864;2023-10-09T03:16:29;101516.59;;;16.14;90.03
48204;BME280;33994;50.998;5.864;2023-10-09T03:19:33;101513.13;;;16.12;90.05
48204;BME280;33994;50.998;5.864;2023-10-09T03:22:36;101515.81;;;16.11;89.75
48204;BME280;33994;50.998;5.864;2023-10-09T03:25:41;101514.03;;;16.11;89.51
48204;BME280;33994;50.998;5.864;2023-10-09T03:28:45;101510.47;;;16.12;89.59
48204;BME280;33994;50.998;5.864;2023-10-09T03:31:48;101515.72;;;16.14;89.26
48204;BME280;33994;50.998;5.864;2023-10-09T03:34:51;101514.81;;;16.15;88.82
48204;BME280;33994;50.998;5.864;2023-10-09T03:37:55;101517.47;;;16.15;88.49
48204;BME280;33994;50.998;5.864;2023-10-09T03:41:01;101518.31;;;16.15;88.66
48204;BME280;33994;50.998;5.864;2023-10-09T03:44:04;101498.94;;;16.16;88.37
48204;BME280;33994;50.998;5.864;2023-10-09T03:47:07;101497.22;;;16.15;88.50
48204;BME280;33994;50.998;5.864;2023-10-09T03:50:10;101500.75;;;16.14;88.39
48204;BME280;33994;50.998;5.864;2023-10-09T03:53:14;101502.47;;;16.15;88.36
48204;BME280;33994;50.998;5.864;2023-10-09T03:56:19;101500.75;;;16.14;88.22
48204;BME280;33994;50.998;5.864;2023-10-09T03:59:22;101506.03;;;16.14;88.26
48204;BME280;33994;50.998;5.864;2023-10-09T04:02:25;101517.47;;;16.15;88.07
48204;BME280;33994;50.998;5.864;2023-10-09T04:05:28;101511.25;;;16.17;87.93
48204;BME280;33994;50.998;5.864;2023-10-09T04:08:31;101521.78;;;16.17;87.94
48204;BME280;33994;50.998;5.864;2023-10-09T04:11:36;101520.03;;;16.16;87.79
48204;BME280;33994;50.998;5.864;2023-10-09T04:14:39;101516.53;;;16.17;87.90
48204;BME280;33994;50.998;5.864;2023-10-09T04:17:43;101522.66;;;16.18;87.90
48204;BME280;33994;50.998;5.864;2023-10-09T04:20:46;101520.03;;;16.16;88.09
48204;BME280;33994;50.998;5.864;2023-10-09T04:23:49;101514.75;;;16.16;87.89
48204;BME280;33994;50.998;5.864;2023-10-09T04:26:54;101498.16;;;16.13;87.95
48204;BME280;33994;50.998;5.864;2023-10-09T04:29:57;101499.00;;;16.13;87.89
48204;BME280;33994;50.998;5.864;2023-10-09T04:33:00;101502.47;;;16.15;87.82
48204;BME280;33994;50.998;5.864;2023-10-09T04:36:04;101503.34;;;16.16;87.84
48204;BME280;33994;50.998;5.864;2023-10-09T04:39:09;101502.47;;;16.15;87.99
48204;BME280;33994;50.998;5.864;2023-10-09T04:42:14;101505.06;;;16.17;87.79
48204;BME280;33994;50.998;5.864;2023-10-09T04:45:17;101500.69;;;16.17;88.14
48204;BME280;33994;50.998;5.864;2023-10-09T04:48:20;101487.50;;;16.16;88.43
48204;BME280;33994;50.998;5.864;2023-10-09T04:51:24;101488.38;;;16.16;88.72
48204;BME280;33994;50.998;5.864;2023-10-09T04:54:27;101484.94;;;16.14;88.70
48204;BME280;33994;50.998;5.864;2023-10-09T04:57:31;101491.09;;;16.13;88.73
48204;BME280;33994;50.998;5.864;2023-10-09T05:00:34;101497.28;;;16.12;88.48
48204;BME280;33994;50.998;5.864;2023-10-09T05:03:39;101488.44;;;16.13;88.44
48204;BME280;33994;50.998;5.864;2023-10-09T05:06:42;101477.09;;;16.11;88.27
48204;BME280;33994;50.998;5.864;2023-10-09T05:09:45;101466.53;;;16.11;88.30
48204;BME280;33994;50.998;5.864;2023-10-09T05:12:50;101467.47;;;16.10;88.04
48204;BME280;33994;50.998;5.864;2023-10-09T05:15:53;101480.66;;;16.09;87.98
48204;BME280;33994;50.998;5.864;2023-10-09T05:18:57;101484.22;;;16.08;88.20
48204;BME280;33994;50.998;5.864;2023-10-09T05:22:00;101472.03;;;16.03;88.05
48204;BME280;33994;50.998;5.864;2023-10-09T05:25:03;101479.88;;;16.05;88.08
48204;BME280;33994;50.998;5.864;2023-10-09T05:28:08;101495.72;;;16.05;88.18
48204;BME280;33994;50.998;5.864;2023-10-09T05:31:12;101502.75;;;16.06;88.38
48204;BME280;33994;50.998;5.864;2023-10-09T05:34:15;101508.88;;;16.07;88.37
48204;BME280;33994;50.998;5.864;2023-10-09T05:37:18;101500.13;;;16.04;88.33
48204;BME280;33994;50.998;5.864;2023-10-09T05:40:21;101494.00;;;16.04;88.42
48204;BME280;33994;50.998;5.864;2023-10-09T05:43:26;101491.34;;;16.04;88.64
48204;BME280;33994;50.998;5.864;2023-10-09T05:46:29;101496.69;;;16.02;88.32
48204;BME280;33994;50.998;5.864;2023-10-09T05:49:32;101494.06;;;16.01;88.71
48204;BME280;33994;50.998;5.864;2023-10-09T05:52:35;101488.78;;;16.01;88.60
48204;BME280;33994;50.998;5.864;2023-10-09T05:55:38;101499.34;;;16.01;88.29
48204;BME280;33994;50.998;5.864;2023-10-09T05:58:43;101502.84;;;16.01;88.51
48204;BME280;33994;50.998;5.864;2023-10-09T06:01:46;101513.38;;;16.03;88.32
48204;BME280;33994;50.998;5.864;2023-10-09T06:04:49;101501.97;;;16.01;88.29
48204;BME280;33994;50.998;5.864;2023-10-09T06:07:53;101505.53;;;16.00;88.13
48204;BME280;33994;50.998;5.864;2023-10-09T06:10:57;101508.19;;;16.00;88.24
48204;BME280;33994;50.998;5.864;2023-10-09T06:14:01;101497.69;;;15.97;88.17
48204;BME280;33994;50.998;5.864;2023-10-09T06:17:05;101486.22;;;15.98;88.08
48204;BME280;33994;50.998;5.864;2023-10-09T06:20:09;101490.63;;;15.99;88.07
48204;BME280;33994;50.998;5.864;2023-10-09T06:23:12;101486.22;;;15.99;88.08
48204;BME280;33994;50.998;5.864;2023-10-09T06:26:15;101524.00;;;16.00;88.14
48204;BME280;33994;50.998;5.864;2023-10-09T06:29:20;101542.41;;;16.01;87.97
48204;BME280;33994;50.998;5.864;2023-10-09T06:32:23;101532.72;;;16.03;87.92
48204;BME280;33994;50.998;5.864;2023-10-09T06:35:26;101544.06;;;16.05;88.00
48204;BME280;33994;50.998;5.864;2023-10-09T06:38:29;101554.59;;;16.07;87.79
48204;BME280;33994;50.998;5.864;2023-10-09T06:41:32;101561.66;;;16.07;87.60
48204;BME280;33994;50.998;5.864;2023-10-09T06:44:37;101573.09;;;16.05;87.59
48204;BME280;33994;50.998;5.864;2023-10-09T06:47:40;101572.22;;;16.05;87.57
48204;BME280;33994;50.998;5.864;2023-10-09T06:50:43;101578.41;;;16.04;87.93
48204;BME280;33994;50.998;5.864;2023-10-09T06:53:46;101568.81;;;16.01;88.01
48204;BME280;33994;50.998;5.864;2023-10-09T06:56:49;101584.63;;;16.01;88.07
48204;BME280;33994;50.998;5.864;2023-10-09T06:59:54;101599.59;;;16.01;88.01
48204;BME280;33994;50.998;5.864;2023-10-09T07:02:57;101608.44;;;16.00;88.28
48204;BME280;33994;50.998;5.864;2023-10-09T07:06:04;101591.75;;;15.99;88.48
48204;BME280;33994;50.998;5.864;2023-10-09T07:09:07;101594.50;;;15.95;88.63
48204;BME280;33994;50.998;5.864;2023-10-09T07:12:10;101585.66;;;15.96;88.87
48204;BME280;33994;50.998;5.864;2023-10-09T07:15:15;101593.59;;;15.96;88.94
48204;BME280;33994;50.998;5.864;2023-10-09T07:18:18;101590.03;;;15.97;89.10
48204;BME280;33994;50.998;5.864;2023-10-09T07:21:21;101587.41;;;15.97;89.00
48204;BME280;33994;50.998;5.864;2023-10-09T07:24:24;101578.66;;;15.95;88.98
48204;BME280;33994;50.998;5.864;2023-10-09T07:27:29;101574.28;;;15.94;89.31
48204;BME280;33994;50.998;5.864;2023-10-09T07:30:36;101571.63;;;15.94;89.11
48204;BME280;33994;50.998;5.864;2023-10-09T07:33:40;101561.06;;;15.95;89.25
48204;BME280;33994;50.998;5.864;2023-10-09T07:36:43;101557.47;;;15.98;89.17
48204;BME280;33994;50.998;5.864;2023-10-09T07:39:46;101563.56;;;16.00;89.20
48204;BME280;33994;50.998;5.864;2023-10-09T07:42:49;101587.25;;;16.03;89.34
48204;BME280;33994;50.998;5.864;2023-10-09T07:45:55;101590.69;;;16.05;89.47
48204;BME280;33994;50.998;5.864;2023-10-09T07:48:59;101587.13;;;16.08;89.18
48204;BME280;33994;50.998;5.864;2023-10-09T07:52:03;101582.72;;;16.08;89.46
48204;BME280;33994;50.998;5.864;2023-10-09T07:55:06;101566.84;;;16.10;89.10
48204;BME280;33994;50.998;5.864;2023-10-09T07:58:10;101559.69;;;16.13;89.40
48204;BME280;33994;50.998;5.864;2023-10-09T08:01:15;101562.25;;;16.16;89.21
48204;BME280;33994;50.998;5.864;2023-10-09T08:04:18;101556.03;;;16.19;89.15
48204;BME280;33994;50.998;5.864;2023-10-09T08:07:21;101558.56;;;16.23;88.77
48204;BME280;33994;50.998;5.864;2023-10-09T08:10:24;101558.41;;;16.29;88.63
48204;BME280;33994;50.998;5.864;2023-10-09T08:13:28;101553.06;;;16.33;88.06
48204;BME280;33994;50.998;5.864;2023-10-09T08:16:32;101553.84;;;16.35;88.19
48204;BME280;33994;50.998;5.864;2023-10-09T08:19:35;101556.47;;;16.36;88.10
48204;BME280;33994;50.998;5.864;2023-10-09T08:22:39;101541.50;;;16.37;87.73
48204;BME280;33994;50.998;5.864;2023-10-09T08:25:42;101530.03;;;16.38;87.96
48204;BME280;33994;50.998;5.864;2023-10-09T08:28:46;101531.75;;;16.39;87.53
48204;BME280;33994;50.998;5.864;2023-10-09T08:31:50;101540.50;;;16.41;87.38
48204;BME280;33994;50.998;5.864;2023-10-09T08:34:53;101528.94;;;16.45;87.18
48204;BME280;33994;50.998;5.864;2023-10-09T08:37:57;101539.38;;;16.49;87.08
48204;BME280;33994;50.998;5.864;2023-10-09T08:41:08;101554.16;;;16.55;86.97
48204;BME280;33994;50.998;5.864;2023-10-09T08:44:12;101566.34;;;16.61;86.67
48204;BME280;33994;50.998;5.864;2023-10-09T08:47:16;101577.63;;;16.66;86.28
48204;BME280;33994;50.998;5.864;2023-10-09T08:50:19;101576.59;;;16.71;85.86
48204;BME280;33994;50.998;5.864;2023-10-09T08:53:23;101582.59;;;16.78;85.55
48204;BME280;33994;50.998;5.864;2023-10-09T08:56:26;101575.44;;;16.82;85.49
48204;BME280;33994;50.998;5.864;2023-10-09T08:59:29;101564.66;;;16.89;85.18
48204;BME280;33994;50.998;5.864;2023-10-09T09:02:34;101549.50;;;16.96;85.13
48204;BME280;33994;50.998;5.864;2023-10-09T09:05:37;101543.09;;;17.03;84.82
48204;BME280;33994;50.998;5.864;2023-10-09T09:08:40;101553.50;;;17.09;84.13
48204;BME280;33994;50.998;5.864;2023-10-09T09:11:44;101557.69;;;17.16;83.84
48204;BME280;33994;50.998;5.864;2023-10-09T09:14:47;101558.34;;;17.23;83.29
48204;BME280;33994;50.998;5.864;2023-10-09T09:17:52;101555.47;;;17.31;83.31
48204;BME280;33994;50.998;5.864;2023-10-09T09:21:17;101571.16;;;17.37;82.58
48204;BME280;33994;50.998;5.864;2023-10-09T09:24:20;101561.25;;;17.43;82.73
48204;BME280;33994;50.998;5.864;2023-10-09T09:27:43;101568.03;;;17.50;81.53
48204;BME280;33994;50.998;5.864;2023-10-09T09:30:47;101566.22;;;17.52;81.73
48204;BME280;33994;50.998;5.864;2023-10-09T09:33:57;101567.72;;;17.61;81.16
48204;BME280;33994;50.998;5.864;2023-10-09T09:37:01;101570.16;;;17.67;81.42
48204;BME280;33994;50.998;5.864;2023-10-09T09:40:05;101559.44;;;17.73;80.89
48204;BME280;33994;50.998;5.864;2023-10-09T09:43:09;101561.06;;;17.78;80.55
48204;BME280;33994;50.998;5.864;2023-10-09T09:46:13;101559.97;;;17.83;79.79
48204;BME280;33994;50.998;5.864;2023-10-09T09:49:20;101551.97;;;17.85;79.53
48204;BME280;33994;50.998;5.864;2023-10-09T09:52:23;101544.75;;;17.90;79.64
48204;BME280;33994;50.998;5.864;2023-10-09T09:55:33;101540.25;;;17.92;79.09
48204;BME280;33994;50.998;5.864;2023-10-09T09:58:36;101530.41;;;17.97;79.39
48204;BME280;33994;50.998;5.864;2023-10-09T10:01:39;101528.38;;;18.04;79.09
48204;BME280;33994;50.998;5.864;2023-10-09T10:04:44;101525.59;;;18.08;78.77
48204;BME280;33994;50.998;5.864;2023-10-09T10:07:47;101524.50;;;18.14;78.33
48204;BME280;33994;50.998;5.864;2023-10-09T10:10:50;101516.47;;;18.17;77.80
48204;BME280;33994;50.998;5.864;2023-10-09T10:13:56;101527.72;;;18.23;77.68
48204;BME280;33994;50.998;5.864;2023-10-09T10:17:00;101514.22;;;18.30;77.81
48204;BME280;33994;50.998;5.864;2023-10-09T10:20:07;101508.75;;;18.34;77.17
48204;BME280;33994;50.998;5.864;2023-10-09T10:23:16;101505.97;;;18.39;76.23
48204;BME280;33994;50.998;5.864;2023-10-09T10:26:21;101513.75;;;18.43;76.47
48204;BME280;33994;50.998;5.864;2023-10-09T10:29:24;101507.47;;;18.46;76.09
48204;BME280;33994;50.998;5.864;2023-10-09T10:32:54;101506.38;;;18.52;75.70
48204;BME280;33994;50.998;5.864;2023-10-09T10:35:59;101501.75;;;18.57;75.83
48204;BME280;33994;50.998;5.864;2023-10-09T10:39:04;101497.19;;;18.60;75.67
48204;BME280;33994;50.998;5.864;2023-10-09T10:42:08;101498.91;;;18.63;74.94
48204;BME280;33994;50.998;5.864;2023-10-09T10:45:17;101507.63;;;18.66;74.05
48204;BME280;33994;50.998;5.864;2023-10-09T10:48:21;101514.53;;;18.70;74.36
48204;BME280;33994;50.998;5.864;2023-10-09T10:51:25;101522.34;;;18.74;73.94
48204;BME280;33994;50.998;5.864;2023-10-09T10:54:28;101527.56;;;18.77;73.97
48204;BME280;33994;50.998;5.864;2023-10-09T10:57:35;101543.44;;;18.77;73.27
48204;BME280;33994;50.998;5.864;2023-10-09T11:00:39;101552.13;;;18.80;73.51
48204;BME280;33994;50.998;5.864;2023-10-09T11:03:42;101551.25;;;18.80;73.50
48204;BME280;33994;50.998;5.864;2023-10-09T11:06:51;101559.09;;;18.83;73.74
48204;BME280;33994;50.998;5.864;2023-10-09T11:09:55;101548.38;;;18.86;73.89
48204;BME280;33994;50.998;5.864;2023-10-09T11:12:59;101557.00;;;18.91;73.70
48204;BME280;33994;50.998;5.864;2023-10-09T11:16:04;101556.03;;;18.93;73.71
48204;BME280;33994;50.998;5.864;2023-10-09T11:19:08;101552.34;;;18.98;73.88
48204;BME280;33994;50.998;5.864;2023-10-09T11:22:14;101566.34;;;19.01;74.25
48204;BME280;33994;50.998;5.864;2023-10-09T11:25:17;101554.72;;;19.05;74.23
48204;BME280;33994;50.998;5.864;2023-10-09T11:28:22;101549.28;;;19.08;73.76
48204;BME280;33994;50.998;5.864;2023-10-09T11:31:26;101557.13;;;19.11;73.53
48204;BME280;33994;50.998;5.864;2023-10-09T11:34:29;101549.03;;;19.14;73.28
48204;BME280;33994;50.998;5.864;2023-10-09T11:37:33;101554.22;;;19.17;73.05
48204;BME280;33994;50.998;5.864;2023-10-09T11:40:36;101547.00;;;19.21;72.70
48204;BME280;33994;50.998;5.864;2023-10-09T11:43:50;101548.69;;;19.24;72.49
48204;BME280;33994;50.998;5.864;2023-10-09T11:46:57;101542.41;;;19.26;72.67
48204;BME280;33994;50.998;5.864;2023-10-09T11:50:00;101544.00;;;19.30;72.63
48204;BME280;33994;50.998;5.864;2023-10-09T11:53:06;101541.28;;;19.32;71.67
48204;BME280;33994;50.998;5.864;2023-10-09T11:56:09;101537.66;;;19.34;71.49
48204;BME280;33994;50.998;5.864;2023-10-09T11:59:13;101529.63;;;19.36;71.41
48204;BME280;33994;50.998;5.864;2023-10-09T12:02:16;101539.25;;;19.38;71.40
48204;BME280;33994;50.998;5.864;2023-10-09T12:05:19;101536.50;;;19.41;71.53
48204;BME280;33994;50.998;5.864;2023-10-09T12:08:24;101545.22;;;19.43;71.66
48204;BME280;33994;50.998;5.864;2023-10-09T12:11:28;101548.63;;;19.47;71.97
48204;BME280;33994;50.998;5.864;2023-10-09T12:14:31;101539.72;;;19.48;72.32
48204;BME280;33994;50.998;5.864;2023-10-09T12:17:34;101529.97;;;19.50;72.37
48204;BME280;33994;50.998;5.864;2023-10-09T12:20:38;101531.56;;;19.54;72.60
48204;BME280;33994;50.998;5.864;2023-10-09T12:23:43;101536.75;;;19.57;72.48
48204;BME280;33994;50.998;5.864;2023-10-09T12:26:46;101527.00;;;19.58;72.30
48204;BME280;33994;50.998;5.864;2023-10-09T12:29:49;101537.53;;;19.59;72.10
48204;BME280;33994;50.998;5.864;2023-10-09T12:32:53;101521.56;;;19.61;71.99
48204;BME280;33994;50.998;5.864;2023-10-09T12:35:57;101522.44;;;19.61;71.86
48204;BME280;33994;50.998;5.864;2023-10-09T12:39:01;101522.44;;;19.61;71.88
48204;BME280;33994;50.998;5.864;2023-10-09T12:42:04;101524.16;;;19.62;72.11
48204;BME280;33994;50.998;5.864;2023-10-09T12:45:09;101515.34;;;19.62;72.02
48204;BME280;33994;50.998;5.864;2023-10-09T12:48:12;101515.25;;;19.63;71.46
48204;BME280;33994;50.998;5.864;2023-10-09T12:51:16;101513.53;;;19.62;71.04
48204;BME280;33994;50.998;5.864;2023-10-09T12:54:20;101520.56;;;19.63;71.02
48204;BME280;33994;50.998;5.864;2023-10-09T12:57:23;101523.22;;;19.63;71.05
48204;BME280;33994;50.998;5.864;2023-10-09T13:00:27;101533.81;;;19.63;70.99
48204;BME280;33994;50.998;5.864;2023-10-09T13:03:30;101526.81;;;19.62;71.22
48204;BME280;33994;50.998;5.864;2023-10-09T13:06:34;101540.06;;;19.62;71.55
48204;BME280;33994;50.998;5.864;2023-10-09T13:09:38;101537.41;;;19.62;71.81
48204;BME280;33994;50.998;5.864;2023-10-09T13:12:41;101553.34;;;19.62;71.96
48204;BME280;33994;50.998;5.864;2023-10-09T13:15:45;101549.88;;;19.60;71.99
48204;BME280;33994;50.998;5.864;2023-10-09T13:18:48;101545.50;;;19.59;72.28
48204;BME280;33994;50.998;5.864;2023-10-09T13:21:51;101538.47;;;19.58;72.38
48204;BME280;33994;50.998;5.864;2023-10-09T13:24:56;101542.84;;;19.59;72.38
48204;BME280;33994;50.998;5.864;2023-10-09T13:27:59;101530.59;;;19.57;72.49
48204;BME280;33994;50.998;5.864;2023-10-09T13:31:03;101533.25;;;19.57;72.49
48204;BME280;33994;50.998;5.864;2023-10-09T13:34:07;101534.13;;;19.56;72.47
48204;BME280;33994;50.998;5.864;2023-10-09T13:37:10;101530.75;;;19.52;72.60
48204;BME280;33994;50.998;5.864;2023-10-09T13:40:15;101515.00;;;19.49;72.56
48204;BME280;33994;50.998;5.864;2023-10-09T13:43:19;101514.06;;;19.49;72.78
48204;BME280;33994;50.998;5.864;2023-10-09T13:46:22;101515.84;;;19.50;72.85
48204;BME280;33994;50.998;5.864;2023-10-09T13:49:25;101506.19;;;19.47;72.64
48204;BME280;33994;50.998;5.864;2023-10-09T13:52:28;101502.72;;;19.45;72.38
48204;BME280;33994;50.998;5.864;2023-10-09T13:55:37;101514.25;;;19.44;72.26
48204;BME280;33994;50.998;5.864;2023-10-09T13:58:40;101520.41;;;19.44;72.48
48204;BME280;33994;50.998;5.864;2023-10-09T14:01:43;101527.47;;;19.45;72.46
48204;BME280;33994;50.998;5.864;2023-10-09T14:04:47;101531.88;;;19.45;72.46
48204;BME280;33994;50.998;5.864;2023-10-09T14:07:50;101535.47;;;19.44;72.44
48204;BME280;33994;50.998;5.864;2023-10-09T14:10:54;101528.38;;;19.44;72.52
48204;BME280;33994;50.998;5.864;2023-10-09T14:13:57;101523.16;;;19.43;72.81
48204;BME280;33994;50.998;5.864;2023-10-09T14:17:01;101522.28;;;19.42;72.97
48204;BME280;33994;50.998;5.864;2023-10-09T14:20:05;101523.22;;;19.41;73.12
48204;BME280;33994;50.998;5.864;2023-10-09T14:23:08;101533.88;;;19.40;73.51
48204;BME280;33994;50.998;5.864;2023-10-09T14:26:13;101533.97;;;19.38;73.61
48204;BME280;33994;50.998;5.864;2023-10-09T14:29:16;101530.44;;;19.38;73.87
48204;BME280;33994;50.998;5.864;2023-10-09T14:32:19;101531.34;;;19.37;73.85
48204;BME280;33994;50.998;5.864;2023-10-09T14:35:23;101534.94;;;19.36;73.77
48204;BME280;33994;50.998;5.864;2023-10-09T14:38:26;101533.25;;;19.33;73.78
48204;BME280;33994;50.998;5.864;2023-10-09T14:41:31;101515.63;;;19.32;73.94
48204;BME280;33994;50.998;5.864;2023-10-09T14:44:34;101523.66;;;19.31;74.14
48204;BME280;33994;50.998;5.864;2023-10-09T14:47:37;101518.47;;;19.28;74.41
48204;BME280;33994;50.998;5.864;2023-10-09T14:50:46;101520.19;;;19.29;74.62
48204;BME280;33994;50.998;5.864;2023-10-09T14:53:49;101513.16;;;19.28;74.67
48204;BME280;33994;50.998;5.864;2023-10-09T14:56:54;101513.16;;;19.28;74.59
48204;BME280;33994;50.998;5.864;2023-10-09T14:59:57;101512.22;;;19.29;74.59
48204;BME280;33994;50.998;5.864;2023-10-09T15:03:00;101506.06;;;19.28;74.59
48204;BME280;33994;50.998;5.864;2023-10-09T15:06:04;101513.94;;;19.30;74.64
48204;BME280;33994;50.998;5.864;2023-10-09T15:09:07;101513.03;;;19.31;74.79
48204;BME280;33994;50.998;5.864;2023-10-09T15:12:11;101511.25;;;19.31;74.77
48204;BME280;33994;50.998;5.864;2023-10-09T15:15:15;101510.31;;;19.32;74.77
48204;BME280;33994;50.998;5.864;2023-10-09T15:18:17;101506.72;;;19.33;74.87
48204;BME280;33994;50.998;5.864;2023-10-09T15:21:21;101500.56;;;19.33;74.55
48204;BME280;33994;50.998;5.864;2023-10-09T15:24:25;101505.88;;;19.33;74.03
48204;BME280;33994;50.998;5.864;2023-10-09T15:27:29;101495.38;;;19.30;73.75
48204;BME280;33994;50.998;5.864;2023-10-09T15:30:33;101500.69;;;19.30;73.75
48204;BME280;33994;50.998;5.864;2023-10-09T15:33:36;101507.84;;;19.28;74.03
48204;BME280;33994;50.998;5.864;2023-10-09T15:36:39;101499.97;;;19.26;74.39
48204;BME280;33994;50.998;5.864;2023-10-09T15:39:42;101499.25;;;19.23;74.36
48204;BME280;33994;50.998;5.864;2023-10-09T15:42:46;101505.44;;;19.21;74.44
48204;BME280;33994;50.998;5.864;2023-10-09T15:45:50;101506.44;;;19.19;74.32
48204;BME280;33994;50.998;5.864;2023-10-09T15:48:53;101506.50;;;19.17;74.55
48204;BME280;33994;50.998;5.864;2023-10-09T15:51:56;101510.16;;;19.15;74.48
48204;BME280;33994;50.998;5.864;2023-10-09T15:54:59;101510.19;;;19.13;74.42
48204;BME280;33994;50.998;5.864;2023-10-09T15:58:04;101507.72;;;19.09;74.54
48204;BME280;33994;50.998;5.864;2023-10-09T16:01:08;101508.72;;;19.06;74.76